createdAt,value
2019-05-07T00:00:43.576Z,74.03
2019-05-07T00:01:42.334Z,73.27
2019-05-07T00:02:42.711Z,72.79
2019-05-07T00:03:42.177Z,70.70
2019-05-07T00:04:42.645Z,69.18
2019-05-07T00:05:42.603Z,69.37
2019-05-07T00:06:40.681Z,70.04
2019-05-07T00:07:42.518Z,68.99
2019-05-07T00:08:44.659Z,68.39
2019-05-07T00:09:42.930Z,66.49
2019-05-07T00:19:55.785Z,62.78
2019-05-07T00:20:56.014Z,62.50
2019-05-07T00:21:55.353Z,62.69
2019-05-07T00:22:55.331Z,62.69
2019-05-07T00:23:56.668Z,61.74
2019-05-07T00:24:55.368Z,60.88
2019-05-07T00:25:55.300Z,60.41
2019-05-07T00:26:55.299Z,60.31
2019-05-07T00:27:55.271Z,60.60
2019-05-07T00:28:55.353Z,60.03
2019-05-07T00:29:57.201Z,59.65
2019-05-07T00:30:55.425Z,60.03
2019-05-07T00:31:55.399Z,60.13
2019-05-07T00:32:55.338Z,60.60
2019-05-07T00:33:55.427Z,59.65
2019-05-07T00:34:55.457Z,59.27
2019-05-07T00:35:55.431Z,58.13
2019-05-07T00:36:55.473Z,57.09
2019-05-07T00:37:55.461Z,56.32
2019-05-07T00:38:55.325Z,56.23
2019-05-07T00:39:55.530Z,55.47
2019-05-07T00:40:55.003Z,54.71
2019-05-07T00:41:54.852Z,54.52
2019-05-07T00:42:54.900Z,54.80
2019-05-07T00:43:54.855Z,54.05
2019-05-07T00:44:54.853Z,53.47
2019-05-07T00:45:56.857Z,52.62
2019-05-07T00:46:54.895Z,52.72
2019-05-07T00:47:54.882Z,52.05
2019-05-07T00:48:54.907Z,52.24
2019-05-07T00:49:54.925Z,51.67
2019-05-07T00:50:54.925Z,51.76
2019-05-07T00:51:54.981Z,51.95
2019-05-07T00:52:54.950Z,50.91
2019-05-07T00:53:54.989Z,51.29
2019-05-07T00:54:55.049Z,51.20
2019-05-07T00:55:54.988Z,50.62
2019-05-07T00:56:55.043Z,51.67
2019-05-07T00:57:55.059Z,51.95
2019-05-07T00:58:55.023Z,52.05
2019-05-07T00:59:55.040Z,52.14
2019-05-07T01:00:55.109Z,52.14
2019-05-07T01:01:55.122Z,51.39
2019-05-07T01:02:55.086Z,52.05
2019-05-07T01:03:55.138Z,52.33
2019-05-07T01:04:55.144Z,53.00
2019-05-07T01:05:55.123Z,53.95
2019-05-07T01:06:55.157Z,53.57
2019-05-07T01:07:55.149Z,51.95
2019-05-07T01:08:55.201Z,51.95
2019-05-07T01:09:55.167Z,51.95
2019-05-07T01:10:55.247Z,51.48
2019-05-07T01:11:55.230Z,51.20
2019-05-07T01:12:55.207Z,51.39
2019-05-07T01:13:55.295Z,51.86
2019-05-07T01:14:55.259Z,52.43
2019-05-07T01:15:55.244Z,53.00
2019-05-07T01:16:55.255Z,55.66
2019-05-07T01:17:55.277Z,59.46
2019-05-07T01:18:55.363Z,59.17
2019-05-07T01:19:55.296Z,60.13
2019-05-07T01:20:55.383Z,60.13
2019-05-07T01:21:55.340Z,59.55
2019-05-07T01:22:55.339Z,58.70
2019-05-07T01:23:55.420Z,58.03
2019-05-07T01:24:55.362Z,57.65
2019-05-07T01:25:55.395Z,58.22
2019-05-07T01:26:55.390Z,59.65
2019-05-07T01:27:55.471Z,60.22
2019-05-07T01:28:55.441Z,61.45
2019-05-07T01:29:55.425Z,61.83
2019-05-07T01:30:55.465Z,61.74
2019-05-07T01:31:55.536Z,60.60
2019-05-07T01:32:55.469Z,59.65
2019-05-07T01:33:55.475Z,59.65
2019-05-07T01:34:55.526Z,59.08
2019-05-07T01:35:55.578Z,58.32
2019-05-07T01:36:55.563Z,58.32
2019-05-07T01:37:55.532Z,58.41
2019-05-07T01:38:55.546Z,58.22
2019-05-07T01:39:55.552Z,58.22
2019-05-07T01:40:55.573Z,57.37
2019-05-07T01:41:55.586Z,56.23
2019-05-07T01:42:55.623Z,56.23
2019-05-07T01:43:55.609Z,56.51
2019-05-07T01:44:55.637Z,56.23
2019-05-07T01:45:55.637Z,55.37
2019-05-07T01:46:55.650Z,54.99
2019-05-07T01:47:55.745Z,54.52
2019-05-07T01:48:57.541Z,54.24
2019-05-07T01:49:55.718Z,54.33
2019-05-07T01:50:55.758Z,54.61
2019-05-07T01:51:55.750Z,55.37
2019-05-07T01:52:55.724Z,56.04
2019-05-07T01:53:55.817Z,56.04
2019-05-07T01:54:55.815Z,55.28
2019-05-07T01:55:55.777Z,54.71
2019-05-07T01:56:55.780Z,53.66
2019-05-07T01:57:55.879Z,52.53
2019-05-07T01:58:55.894Z,52.24
2019-05-07T01:59:55.887Z,51.95
2019-05-07T02:00:55.857Z,52.05
2019-05-07T02:01:55.871Z,53.47
2019-05-07T02:02:55.857Z,53.85
2019-05-07T02:03:55.883Z,53.57
2019-05-07T02:04:55.883Z,53.57
2019-05-07T02:05:55.929Z,52.33
2019-05-07T02:06:55.915Z,51.67
2019-05-07T02:07:55.926Z,50.81
2019-05-07T02:08:55.937Z,50.24
2019-05-07T02:09:56.024Z,49.29
2019-05-07T02:10:55.975Z,48.91
2019-05-07T02:11:55.978Z,49.01
2019-05-07T02:12:55.981Z,49.01
2019-05-07T02:13:56.050Z,49.20
2019-05-07T02:14:56.007Z,48.82
2019-05-07T02:16:00.854Z,48.82
2019-05-07T02:16:56.103Z,49.01
2019-05-07T02:17:56.096Z,49.10
2019-05-07T02:18:56.061Z,49.01
2019-05-07T02:19:56.078Z,48.82
2019-05-07T02:20:56.183Z,48.16
2019-05-07T02:21:56.111Z,46.54
2019-05-07T02:22:56.226Z,45.97
2019-05-07T02:23:56.168Z,44.64
2019-05-07T02:24:56.196Z,45.59
2019-05-07T02:25:56.153Z,46.64
2019-05-07T02:26:56.265Z,47.11
2019-05-07T02:27:56.195Z,49.01
2019-05-07T02:28:56.948Z,50.34
2019-05-07T02:29:56.207Z,50.62
2019-05-07T02:30:56.218Z,50.24
2019-05-07T02:31:56.288Z,49.77
2019-05-07T02:32:56.260Z,49.01
2019-05-07T02:33:56.325Z,48.72
2019-05-07T02:34:56.266Z,48.06
2019-05-07T02:35:56.280Z,47.58
2019-05-07T02:36:56.296Z,48.72
2019-05-07T02:37:57.016Z,48.63
2019-05-07T02:38:56.410Z,48.82
2019-05-07T02:39:56.339Z,49.60
2019-05-07T02:40:56.351Z,51.22
2019-05-07T02:41:56.420Z,52.36
2019-05-07T02:42:56.444Z,54.74
2019-05-07T02:43:59.944Z,55.30
2019-05-07T02:44:56.424Z,56.45
2019-05-07T02:45:56.410Z,58.16
2019-05-07T02:46:56.447Z,59.96
2019-05-07T02:47:56.447Z,60.91
2019-05-07T02:48:56.447Z,60.82
2019-05-07T02:49:56.517Z,60.44
2019-05-07T02:50:56.536Z,61.48
2019-05-07T02:51:56.490Z,61.20
2019-05-07T02:52:56.528Z,61.58
2019-05-07T02:53:56.511Z,61.58
2019-05-07T02:54:56.525Z,60.82
2019-05-07T02:55:56.619Z,60.16
2019-05-07T02:56:56.618Z,61.39
2019-05-07T02:57:56.563Z,60.82
2019-05-07T04:04:38.837Z,42.43
2019-05-07T04:05:38.805Z,42.46
2019-05-07T04:06:38.789Z,42.91
2019-05-07T04:07:38.894Z,42.65
2019-05-07T04:08:38.845Z,43.41
2019-05-07T04:09:38.926Z,43.48
2019-05-07T04:10:38.922Z,43.29
2019-05-07T04:11:38.961Z,43.57
2019-05-07T04:12:39.491Z,43.48
2019-05-07T04:13:38.945Z,43.19
2019-05-07T04:14:39.350Z,42.82
2019-05-07T04:15:39.083Z,43.10
2019-05-07T04:16:38.954Z,42.34
2019-05-07T04:17:42.509Z,42.24
2019-05-07T04:18:39.742Z,41.01
2019-05-07T04:19:38.985Z,40.63
2019-05-07T04:20:39.143Z,39.61
2019-05-07T04:21:39.034Z,38.94
2019-05-07T04:22:38.932Z,39.61
2019-05-07T04:23:39.474Z,40.37
2019-05-07T04:24:42.793Z,41.41
2019-05-07T04:25:39.059Z,41.98
2019-05-07T04:26:39.105Z,42.83
2019-05-07T04:27:43.376Z,42.83
2019-05-07T04:28:39.077Z,43.50
2019-05-07T04:29:38.821Z,44.54
2019-05-07T04:30:38.543Z,45.97
2019-05-07T04:31:38.589Z,46.54
2019-05-07T04:32:38.600Z,47.20
2019-05-07T04:33:38.632Z,47.11
2019-05-07T04:34:38.562Z,47.39
2019-05-07T04:35:38.763Z,47.20
2019-05-07T04:36:38.715Z,46.64
2019-05-07T04:37:38.811Z,46.25
2019-05-07T04:38:38.830Z,45.78
2019-05-07T04:39:38.612Z,45.21
2019-05-07T04:40:38.660Z,45.31
2019-05-07T04:41:38.744Z,45.31
2019-05-07T04:42:38.740Z,44.64
2019-05-07T04:43:38.858Z,45.12
2019-05-07T04:44:38.973Z,45.87
2019-05-07T04:45:38.790Z,47.02
2019-05-07T04:46:38.709Z,47.20
2019-05-07T04:47:46.330Z,47.77
2019-05-07T04:48:38.675Z,48.16
2019-05-07T04:49:38.878Z,49.10
2019-05-07T04:50:43.413Z,49.68
2019-05-07T04:51:38.863Z,49.68
2019-05-07T04:52:38.966Z,49.58
2019-05-07T04:53:38.826Z,50.05
2019-05-07T04:54:38.717Z,50.62
2019-05-07T04:55:38.912Z,51.39
2019-05-07T04:56:39.166Z,52.24
2019-05-07T04:57:38.916Z,52.24
2019-05-07T04:58:39.389Z,52.72
2019-05-07T04:59:42.547Z,52.43
2019-05-07T05:00:39.396Z,52.91
2019-05-07T05:01:39.360Z,54.26
2019-05-07T05:02:39.313Z,54.43
2019-05-07T05:03:39.461Z,54.74
2019-05-07T05:04:39.473Z,54.55
2019-05-07T05:05:39.229Z,54.05
2019-05-07T05:06:39.264Z,52.17
2019-05-07T05:07:39.306Z,51.79
2019-05-07T05:08:39.619Z,51.70
2019-05-07T05:09:39.103Z,52.08
2019-05-07T05:10:39.140Z,53.12
2019-05-07T05:11:39.513Z,54.55
2019-05-07T05:12:42.844Z,55.59
2019-05-07T05:13:39.405Z,55.21
2019-05-07T05:14:39.384Z,55.02
2019-05-07T05:15:39.632Z,54.36
2019-05-07T05:16:42.397Z,53.41
2019-05-07T05:17:48.132Z,54.07
2019-05-07T05:18:46.649Z,54.55
2019-05-07T05:19:43.724Z,55.21
2019-05-07T05:20:44.869Z,55.40
2019-05-07T05:21:52.698Z,56.16
2019-05-07T05:22:39.108Z,56.73
2019-05-07T05:23:39.290Z,57.59
2019-05-07T05:24:39.300Z,59.30
2019-05-07T05:25:39.194Z,59.96
2019-05-07T05:26:39.214Z,60.72
2019-05-07T05:27:39.226Z,61.80
2019-05-07T05:28:39.305Z,61.61
2019-05-07T05:29:39.212Z,63.04
2019-05-07T05:30:39.342Z,64.46
2019-05-07T05:31:39.268Z,64.27
2019-05-07T05:32:39.293Z,65.13
2019-05-07T05:33:39.320Z,66.84
2019-05-07T05:34:39.286Z,69.41
2019-05-07T05:35:39.364Z,72.30
2019-05-07T05:36:39.323Z,74.01
2019-05-07T05:37:39.282Z,74.58
2019-05-07T05:38:39.429Z,76.57
2019-05-07T05:39:39.442Z,79.91
2019-05-07T05:40:39.465Z,81.90
2019-05-07T05:41:39.430Z,81.43
2019-05-07T05:42:39.483Z,83.33
2019-05-07T05:43:39.571Z,84.47
2019-05-07T05:44:41.631Z,84.47
2019-05-07T05:45:39.552Z,86.85
2019-05-07T05:46:39.572Z,89.04
2019-05-07T05:47:42.834Z,89.56
2019-05-07T05:48:39.528Z,90.13
2019-05-07T05:49:39.524Z,90.13
2019-05-07T05:50:39.612Z,90.51
2019-05-07T05:51:39.723Z,89.75
2019-05-07T05:52:39.502Z,90.22
2019-05-07T05:53:39.502Z,90.61
2019-05-07T05:54:39.621Z,92.41
2019-05-07T05:55:39.533Z,92.70
2019-05-07T05:56:39.642Z,92.41
2019-05-07T05:57:39.663Z,92.32
2019-05-07T05:58:39.635Z,94.60
2019-05-07T05:59:49.189Z,94.60
2019-05-07T06:00:39.616Z,96.22
2019-05-07T06:01:39.646Z,95.36
2019-05-07T06:02:39.727Z,94.27
2019-05-07T06:03:39.718Z,95.27
2019-05-07T06:04:41.935Z,96.22
2019-05-07T06:05:41.558Z,95.32
2019-05-07T06:06:42.128Z,97.03
2019-05-07T06:07:51.978Z,98.08
2019-05-07T06:09:46.483Z,99.99
2019-05-07T06:10:46.449Z,99.99
2019-05-07T06:11:46.437Z,99.99
2019-05-07T06:12:46.477Z,99.99
2019-05-07T06:13:46.370Z,99.99
2019-05-07T06:14:46.405Z,99.99
